EDT,Max TemperatureF,Mean TemperatureF,Min TemperatureF,Max Dew PointF,MeanDew PointF,Min DewpointF,Max Humidity, Mean Humidity, Min Humidity, Max Sea Level PressureIn, Mean Sea Level PressureIn, Min Sea Level PressureIn, Max VisibilityMiles, Mean VisibilityMiles, Min VisibilityMiles, Max Wind SpeedMPH, Mean Wind SpeedMPH, Max Gust SpeedMPH,PrecipitationIn, CloudCover, Events, WindDirDegrees
2013-6-1,82,77,73,72,71,70,94,81,71,30.19,30.15,30.11,10,10,10,15,7,,0.00,1,,204
2013-6-2,82,78,73,72,71,70,91,80,69,30.11,30.05,29.99,10,10,10,17,11,22,0.00,1,,206
2013-6-3,80,76,71,75,72,69,94,88,78,30.00,29.95,29.89,10,9,2,18,11,26,0.22,5,Rain,195
2013-6-4,82,76,69,73,70,62,100,83,56,30.11,29.99,29.91,10,10,3,13,6,20,0.04,5,Rain,14
2013-6-5,80,74,68,65,62,59,87,69,50,30.12,30.09,30.05,10,10,10,12,6,16,0.00,1,,66
2013-6-6,81,76,71,73,70,66,100,83,69,30.06,29.95,29.88,10,9,2,16,7,23,0.14,6,Rain,141
2013-6-7,82,78,73,75,73,71,100,90,79,29.89,29.74,29.63,10,5,1,33,17,50,0.86,7,Rain,183
2013-6-8,82,78,75,77,75,72,100,90,78,30.12,29.98,29.89,10,8,6,22,15,28,0.00,5,,210
2013-6-9,82,78,75,77,74,68,100,90,79,30.18,30.15,30.12,10,9,7,16,9,24,0.00,3,,198
2013-6-10,82,78,75,76,74,72,94,89,79,30.16,30.07,30.01,10,9,8,21,14,26,0.00,3,,200
2013-6-11,82,78,75,76,73,70,96,86,74,30.02,29.97,29.90,10,9,7,25,17,32,0.01,4,Rain,229
2013-6-12,86,78,69,77,72,68,100,84,57,29.99,29.94,29.89,10,6,0,17,6,,0.00,0,Fog,233
2013-6-13,86,78,73,79,76,66,100,86,58,29.90,29.78,29.66,10,6,4,25,14,33,0.02,2,Rain,228
2013-6-14,80,73,64,69,61,55,93,67,45,30.02,29.83,29.70,10,10,5,16,10,23,0.16,2,Rain,347
2013-6-15,82,70,59,63,58,55,93,61,42,30.12,30.09,30.03,10,9,2,15,5,,0.00,0,,244
2013-6-16,82,78,75,67,65,63,73,66,56,30.17,30.12,30.08,10,10,10,22,15,29,0.00,1,,227
2013-6-17,82,78,75,72,69,65,82,73,69,30.09,30.06,30.01,10,10,10,18,14,23,0.00,2,,216
2013-6-18,82,78,73,77,74,70,94,88,74,30.01,29.91,29.83,10,8,2,21,14,32,0.09,4,Rain,217
2013-6-19,79,74,69,73,70,64,96,89,73,30.10,29.95,29.84,10,8,1,24,12,38,1.11,6,Rain,347
2013-6-20,82,74,68,68,64,52,93,74,38,30.21,30.16,30.08,10,10,9,16,10,23,0.00,1,,34
2013-6-21,84,75,68,72,70,65,94,83,69,30.20,30.18,30.15,10,10,8,16,10,24,0.00,5,,48
2013-6-22,80,74,71,74,72,69,100,90,78,30.22,30.19,30.17,10,8,1,13,6,18,0.60,5,Rain,143
2013-6-23,82,78,73,77,74,71,100,90,74,30.24,30.20,30.18,10,9,2,14,6,20,0.09,4,Rain,183
2013-6-24,84,78,75,77,75,73,94,87,77,30.25,30.21,30.13,10,10,8,17,9,24,0.00,2,Rain,214
2013-6-25,84,78,75,77,75,71,94,85,79,30.17,30.12,30.04,10,10,9,20,13,25,0.04,2,,228
2013-6-26,84,80,78,76,75,74,93,86,76,30.06,30.02,29.96,10,10,10,23,14,31,0.00,2,,223
2013-6-27,84,80,75,79,75,70,94,85,72,29.96,29.88,29.81,10,9,7,26,16,38,0.00,4,,218
2013-6-28,84,80,77,79,77,70,100,89,74,29.83,29.73,29.66,10,7,2,24,20,38,0.10,6,Rain,223
2013-6-29,82,80,78,79,75,73,100,85,77,29.82,29.73,29.67,10,8,6,28,20,39,0.00,5,,212
2013-6-30,81,77,73,77,74,72,100,90,81,29.94,29.86,29.80,10,7,1,22,16,37,0.74,6,Rain,205